sensor_id;sensor_type;location;lat;lon;timestamp;P1;durP1;ratioP1;P2;durP2;ratioP2
72584;SDS011;60618;40.084;32.908;2023-06-19T00:02:05;8.63;;;5.30;;
72584;SDS011;60618;40.084;32.908;2023-06-19T00:04:32;12.20;;;5.53;;
72584;SDS011;60618;40.084;32.908;2023-06-19T00:07:00;9.77;;;5.70;;
72584;SDS011;60618;40.084;32.908;2023-06-19T00:09:27;11.02;;;5.68;;
72584;SDS011;60618;40.084;32.908;2023-06-19T00:11:54;10.90;;;5.82;;
72584;SDS011;60618;40.084;32.908;2023-06-19T00:14:20;8.40;;;5.20;;
72584;SDS011;60618;40.084;32.908;2023-06-19T00:16:47;10.50;;;5.72;;
72584;SDS011;60618;40.084;32.908;2023-06-19T00:19:14;9.13;;;5.40;;
72584;SDS011;60618;40.084;32.908;2023-06-19T00:21:41;10.20;;;5.22;;
72584;SDS011;60618;40.084;32.908;2023-06-19T00:24:08;9.48;;;5.50;;
72584;SDS011;60618;40.084;32.908;2023-06-19T00:26:37;9.50;;;5.30;;
72584;SDS011;60618;40.084;32.908;2023-06-19T00:29:04;8.48;;;5.57;;
72584;SDS011;60618;40.084;32.908;2023-06-19T00:31:31;10.20;;;5.50;;
72584;SDS011;60618;40.084;32.908;2023-06-19T00:33:58;9.07;;;5.20;;
72584;SDS011;60618;40.084;32.908;2023-06-19T00:36:24;9.32;;;5.38;;
72584;SDS011;60618;40.084;32.908;2023-06-19T00:38:51;8.60;;;5.23;;
72584;SDS011;60618;40.084;32.908;2023-06-19T00:41:18;8.52;;;5.10;;
72584;SDS011;60618;40.084;32.908;2023-06-19T00:43:46;9.35;;;5.10;;
72584;SDS011;60618;40.084;32.908;2023-06-19T00:46:13;8.95;;;5.45;;
72584;SDS011;60618;40.084;32.908;2023-06-19T00:48:40;9.10;;;5.60;;
72584;SDS011;60618;40.084;32.908;2023-06-19T00:51:07;10.30;;;5.57;;
72584;SDS011;60618;40.084;32.908;2023-06-19T00:53:34;9.35;;;5.53;;
72584;SDS011;60618;40.084;32.908;2023-06-19T00:56:02;10.77;;;5.15;;
72584;SDS011;60618;40.084;32.908;2023-06-19T00:58:30;8.98;;;5.32;;
72584;SDS011;60618;40.084;32.908;2023-06-19T01:00:57;9.73;;;5.15;;
72584;SDS011;60618;40.084;32.908;2023-06-19T01:03:34;9.40;;;5.60;;
72584;SDS011;60618;40.084;32.908;2023-06-19T01:06:02;10.38;;;5.07;;
72584;SDS011;60618;40.084;32.908;2023-06-19T01:11:33;8.45;;;5.40;;
72584;SDS011;60618;40.084;32.908;2023-06-19T01:14:08;9.50;;;5.43;;
72584;SDS011;60618;40.084;32.908;2023-06-19T01:16:39;9.03;;;5.13;;
72584;SDS011;60618;40.084;32.908;2023-06-19T01:19:09;10.15;;;4.97;;
72584;SDS011;60618;40.084;32.908;2023-06-19T01:21:37;11.93;;;5.10;;
72584;SDS011;60618;40.084;32.908;2023-06-19T01:24:04;9.45;;;4.85;;
72584;SDS011;60618;40.084;32.908;2023-06-19T01:26:31;9.32;;;4.70;;
72584;SDS011;60618;40.084;32.908;2023-06-19T01:28:59;9.03;;;5.17;;
72584;SDS011;60618;40.084;32.908;2023-06-19T01:31:36;9.18;;;5.07;;
72584;SDS011;60618;40.084;32.908;2023-06-19T01:34:07;8.13;;;5.10;;
72584;SDS011;60618;40.084;32.908;2023-06-19T01:36:36;9.90;;;4.90;;
72584;SDS011;60618;40.084;32.908;2023-06-19T01:39:03;8.25;;;4.40;;
72584;SDS011;60618;40.084;32.908;2023-06-19T01:41:31;8.60;;;4.80;;
72584;SDS011;60618;40.084;32.908;2023-06-19T01:43:59;10.40;;;4.78;;
72584;SDS011;60618;40.084;32.908;2023-06-19T01:46:26;9.32;;;5.15;;
72584;SDS011;60618;40.084;32.908;2023-06-19T01:48:53;11.73;;;6.10;;
72584;SDS011;60618;40.084;32.908;2023-06-19T01:51:21;9.32;;;5.07;;
72584;SDS011;60618;40.084;32.908;2023-06-19T01:53:47;10.47;;;5.40;;
72584;SDS011;60618;40.084;32.908;2023-06-19T01:56:14;10.25;;;5.10;;
72584;SDS011;60618;40.084;32.908;2023-06-19T01:58:41;10.88;;;5.03;;
72584;SDS011;60618;40.084;32.908;2023-06-19T02:01:08;9.30;;;4.95;;
72584;SDS011;60618;40.084;32.908;2023-06-19T02:03:35;8.95;;;4.55;;
72584;SDS011;60618;40.084;32.908;2023-06-19T02:06:02;9.37;;;4.80;;
72584;SDS011;60618;40.084;32.908;2023-06-19T02:08:29;10.65;;;5.03;;
72584;SDS011;60618;40.084;32.908;2023-06-19T02:10:56;7.25;;;4.40;;
72584;SDS011;60618;40.084;32.908;2023-06-19T02:13:23;9.68;;;4.72;;
72584;SDS011;60618;40.084;32.908;2023-06-19T02:15:50;8.57;;;4.82;;
72584;SDS011;60618;40.084;32.908;2023-06-19T02:18:17;8.73;;;4.60;;
72584;SDS011;60618;40.084;32.908;2023-06-19T02:20:44;9.13;;;4.90;;
72584;SDS011;60618;40.084;32.908;2023-06-19T02:23:11;10.07;;;4.97;;
72584;SDS011;60618;40.084;32.908;2023-06-19T02:25:38;9.15;;;4.70;;
72584;SDS011;60618;40.084;32.908;2023-06-19T02:28:05;9.07;;;4.50;;
72584;SDS011;60618;40.084;32.908;2023-06-19T02:30:32;8.07;;;4.83;;
72584;SDS011;60618;40.084;32.908;2023-06-19T02:32:58;10.48;;;4.82;;
72584;SDS011;60618;40.084;32.908;2023-06-19T02:35:26;9.18;;;4.80;;
72584;SDS011;60618;40.084;32.908;2023-06-19T02:37:52;7.78;;;4.72;;
72584;SDS011;60618;40.084;32.908;2023-06-19T02:40:19;9.15;;;5.00;;
72584;SDS011;60618;40.084;32.908;2023-06-19T02:42:47;10.23;;;5.10;;
72584;SDS011;60618;40.084;32.908;2023-06-19T02:45:14;8.35;;;5.03;;
72584;SDS011;60618;40.084;32.908;2023-06-19T02:47:41;8.93;;;4.63;;
72584;SDS011;60618;40.084;32.908;2023-06-19T02:50:08;11.60;;;4.75;;
72584;SDS011;60618;40.084;32.908;2023-06-19T02:52:35;8.35;;;5.18;;
72584;SDS011;60618;40.084;32.908;2023-06-19T02:55:02;8.50;;;5.33;;
72584;SDS011;60618;40.084;32.908;2023-06-19T02:57:29;9.25;;;5.20;;
72584;SDS011;60618;40.084;32.908;2023-06-19T02:59:56;9.13;;;5.10;;
72584;SDS011;60618;40.084;32.908;2023-06-19T03:02:23;10.38;;;5.30;;
72584;SDS011;60618;40.084;32.908;2023-06-19T03:04:50;9.07;;;5.60;;
72584;SDS011;60618;40.084;32.908;2023-06-19T03:07:17;9.40;;;5.27;;
72584;SDS011;60618;40.084;32.908;2023-06-19T03:09:44;9.55;;;5.28;;
72584;SDS011;60618;40.084;32.908;2023-06-19T03:12:10;11.00;;;5.50;;
72584;SDS011;60618;40.084;32.908;2023-06-19T03:14:37;9.25;;;5.20;;
72584;SDS011;60618;40.084;32.908;2023-06-19T03:17:04;10.40;;;5.05;;
72584;SDS011;60618;40.084;32.908;2023-06-19T03:19:32;9.77;;;5.17;;
72584;SDS011;60618;40.084;32.908;2023-06-19T03:21:59;9.27;;;5.00;;
72584;SDS011;60618;40.084;32.908;2023-06-19T03:24:25;7.97;;;4.70;;
72584;SDS011;60618;40.084;32.908;2023-06-19T03:26:53;10.18;;;5.03;;
72584;SDS011;60618;40.084;32.908;2023-06-19T03:29:20;7.68;;;4.80;;
72584;SDS011;60618;40.084;32.908;2023-06-19T03:31:46;7.90;;;4.30;;
72584;SDS011;60618;40.084;32.908;2023-06-19T03:34:13;10.40;;;5.13;;
72584;SDS011;60618;40.084;32.908;2023-06-19T03:36:40;9.48;;;5.20;;
72584;SDS011;60618;40.084;32.908;2023-06-19T03:39:07;10.30;;;4.93;;
72584;SDS011;60618;40.084;32.908;2023-06-19T03:41:34;9.75;;;5.18;;
72584;SDS011;60618;40.084;32.908;2023-06-19T03:44:01;8.40;;;4.93;;
72584;SDS011;60618;40.084;32.908;2023-06-19T03:46:28;11.63;;;5.00;;
72584;SDS011;60618;40.084;32.908;2023-06-19T03:48:55;9.85;;;5.10;;
72584;SDS011;60618;40.084;32.908;2023-06-19T03:51:21;8.50;;;5.00;;
72584;SDS011;60618;40.084;32.908;2023-06-19T03:53:48;9.45;;;5.13;;
72584;SDS011;60618;40.084;32.908;2023-06-19T03:56:15;9.23;;;4.70;;
72584;SDS011;60618;40.084;32.908;2023-06-19T03:58:42;9.25;;;4.70;;
72584;SDS011;60618;40.084;32.908;2023-06-19T04:01:09;8.95;;;4.20;;
72584;SDS011;60618;40.084;32.908;2023-06-19T04:03:36;8.88;;;4.90;;
72584;SDS011;60618;40.084;32.908;2023-06-19T04:06:07;8.77;;;4.75;;
72584;SDS011;60618;40.084;32.908;2023-06-19T04:08:34;8.13;;;4.40;;
72584;SDS011;60618;40.084;32.908;2023-06-19T04:11:01;7.97;;;4.63;;
72584;SDS011;60618;40.084;32.908;2023-06-19T04:13:27;7.60;;;4.40;;
72584;SDS011;60618;40.084;32.908;2023-06-19T04:15:54;9.82;;;4.82;;
72584;SDS011;60618;40.084;32.908;2023-06-19T04:18:21;10.27;;;4.38;;
72584;SDS011;60618;40.084;32.908;2023-06-19T04:20:48;9.87;;;4.70;;
72584;SDS011;60618;40.084;32.908;2023-06-19T04:23:15;10.60;;;4.50;;
72584;SDS011;60618;40.084;32.908;2023-06-19T04:25:42;9.20;;;4.93;;
72584;SDS011;60618;40.084;32.908;2023-06-19T04:28:09;9.52;;;4.70;;
72584;SDS011;60618;40.084;32.908;2023-06-19T04:30:36;8.10;;;4.35;;
72584;SDS011;60618;40.084;32.908;2023-06-19T04:33:03;12.87;;;4.73;;
72584;SDS011;60618;40.084;32.908;2023-06-19T04:35:30;15.02;;;4.43;;
72584;SDS011;60618;40.084;32.908;2023-06-19T04:37:56;12.70;;;4.13;;
72584;SDS011;60618;40.084;32.908;2023-06-19T04:40:23;13.02;;;4.10;;
72584;SDS011;60618;40.084;32.908;2023-06-19T04:42:51;11.52;;;3.40;;
72584;SDS011;60618;40.084;32.908;2023-06-19T04:45:18;8.53;;;3.80;;
72584;SDS011;60618;40.084;32.908;2023-06-19T04:47:45;10.55;;;3.85;;
72584;SDS011;60618;40.084;32.908;2023-06-19T04:50:20;5.57;;;2.00;;
72584;SDS011;60618;40.084;32.908;2023-06-19T04:52:48;5.32;;;1.30;;
72584;SDS011;60618;40.084;32.908;2023-06-19T04:55:15;4.90;;;1.83;;
72584;SDS011;60618;40.084;32.908;2023-06-19T04:57:42;10.10;;;4.20;;
72584;SDS011;60618;40.084;32.908;2023-06-19T05:00:09;11.73;;;4.47;;
72584;SDS011;60618;40.084;32.908;2023-06-19T05:02:37;10.32;;;3.75;;
72584;SDS011;60618;40.084;32.908;2023-06-19T05:05:04;6.70;;;2.80;;
72584;SDS011;60618;40.084;32.908;2023-06-19T05:07:32;6.80;;;2.60;;
72584;SDS011;60618;40.084;32.908;2023-06-19T05:09:59;8.17;;;2.87;;
72584;SDS011;60618;40.084;32.908;2023-06-19T05:12:26;6.68;;;2.90;;
72584;SDS011;60618;40.084;32.908;2023-06-19T05:14:53;7.72;;;3.47;;
72584;SDS011;60618;40.084;32.908;2023-06-19T05:17:19;7.57;;;3.70;;
72584;SDS011;60618;40.084;32.908;2023-06-19T05:19:47;7.45;;;3.97;;
72584;SDS011;60618;40.084;32.908;2023-06-19T05:22:14;7.87;;;4.03;;
72584;SDS011;60618;40.084;32.908;2023-06-19T05:24:41;6.13;;;2.63;;
72584;SDS011;60618;40.084;32.908;2023-06-19T05:27:08;17.25;;;3.25;;
72584;SDS011;60618;40.084;32.908;2023-06-19T05:29:35;7.72;;;2.78;;
72584;SDS011;60618;40.084;32.908;2023-06-19T05:32:02;9.10;;;3.05;;
72584;SDS011;60618;40.084;32.908;2023-06-19T05:34:29;8.27;;;3.80;;
72584;SDS011;60618;40.084;32.908;2023-06-19T05:36:57;8.82;;;3.30;;
72584;SDS011;60618;40.084;32.908;2023-06-19T05:39:24;8.65;;;4.03;;
72584;SDS011;60618;40.084;32.908;2023-06-19T05:41:51;9.65;;;4.32;;
72584;SDS011;60618;40.084;32.908;2023-06-19T05:44:18;9.52;;;4.88;;
72584;SDS011;60618;40.084;32.908;2023-06-19T05:46:45;11.97;;;5.00;;
72584;SDS011;60618;40.084;32.908;2023-06-19T05:49:12;20.38;;;6.50;;
72584;SDS011;60618;40.084;32.908;2023-06-19T05:51:39;13.85;;;6.25;;
72584;SDS011;60618;40.084;32.908;2023-06-19T05:54:06;10.15;;;5.55;;
72584;SDS011;60618;40.084;32.908;2023-06-19T05:56:33;10.57;;;4.68;;
72584;SDS011;60618;40.084;32.908;2023-06-19T05:59:00;9.90;;;4.20;;
72584;SDS011;60618;40.084;32.908;2023-06-19T06:01:28;10.18;;;4.60;;
72584;SDS011;60618;40.084;32.908;2023-06-19T06:03:55;10.73;;;5.10;;
72584;SDS011;60618;40.084;32.908;2023-06-19T06:06:23;8.23;;;3.60;;
72584;SDS011;60618;40.084;32.908;2023-06-19T06:08:50;7.45;;;3.30;;
72584;SDS011;60618;40.084;32.908;2023-06-19T06:11:18;6.77;;;3.23;;
72584;SDS011;60618;40.084;32.908;2023-06-19T06:13:45;8.02;;;3.00;;
72584;SDS011;60618;40.084;32.908;2023-06-19T06:16:12;5.07;;;2.35;;
72584;SDS011;60618;40.084;32.908;2023-06-19T06:18:39;4.50;;;1.70;;
72584;SDS011;60618;40.084;32.908;2023-06-19T06:21:05;4.18;;;1.90;;
72584;SDS011;60618;40.084;32.908;2023-06-19T06:23:32;4.20;;;1.67;;
72584;SDS011;60618;40.084;32.908;2023-06-19T06:25:59;3.33;;;1.10;;
72584;SDS011;60618;40.084;32.908;2023-06-19T06:28:29;3.05;;;1.08;;
72584;SDS011;60618;40.084;32.908;2023-06-19T06:30:59;3.78;;;1.08;;
72584;SDS011;60618;40.084;32.908;2023-06-19T06:33:26;3.42;;;1.10;;
72584;SDS011;60618;40.084;32.908;2023-06-19T06:35:54;3.30;;;1.30;;
72584;SDS011;60618;40.084;32.908;2023-06-19T06:38:21;3.30;;;1.10;;
72584;SDS011;60618;40.084;32.908;2023-06-19T06:40:48;3.10;;;1.10;;
72584;SDS011;60618;40.084;32.908;2023-06-19T06:43:15;3.30;;;1.33;;
72584;SDS011;60618;40.084;32.908;2023-06-19T06:45:42;5.07;;;2.10;;
72584;SDS011;60618;40.084;32.908;2023-06-19T06:48:09;13.13;;;8.13;;
72584;SDS011;60618;40.084;32.908;2023-06-19T06:50:36;4.60;;;2.20;;
72584;SDS011;60618;40.084;32.908;2023-06-19T06:53:03;5.90;;;3.10;;
72584;SDS011;60618;40.084;32.908;2023-06-19T06:55:30;6.93;;;3.90;;
72584;SDS011;60618;40.084;32.908;2023-06-19T06:57:57;7.15;;;4.03;;
72584;SDS011;60618;40.084;32.908;2023-06-19T07:00:24;4.13;;;1.50;;
72584;SDS011;60618;40.084;32.908;2023-06-19T07:02:51;3.60;;;1.58;;
72584;SDS011;60618;40.084;32.908;2023-06-19T07:05:18;3.10;;;1.17;;
72584;SDS011;60618;40.084;32.908;2023-06-19T07:07:47;3.20;;;1.30;;
72584;SDS011;60618;40.084;32.908;2023-06-19T07:10:14;3.85;;;1.73;;
72584;SDS011;60618;40.084;32.908;2023-06-19T07:12:47;3.40;;;0.93;;
72584;SDS011;60618;40.084;32.908;2023-06-19T07:15:15;3.20;;;1.35;;
72584;SDS011;60618;40.084;32.908;2023-06-19T07:17:43;3.92;;;1.50;;
72584;SDS011;60618;40.084;32.908;2023-06-19T07:20:11;4.03;;;1.55;;
72584;SDS011;60618;40.084;32.908;2023-06-19T07:22:38;3.58;;;1.30;;
72584;SDS011;60618;40.084;32.908;2023-06-19T07:25:06;3.97;;;1.40;;
72584;SDS011;60618;40.084;32.908;2023-06-19T07:27:33;5.03;;;2.60;;
72584;SDS011;60618;40.084;32.908;2023-06-19T07:30:00;3.88;;;1.50;;
72584;SDS011;60618;40.084;32.908;2023-06-19T07:32:27;4.20;;;1.88;;
72584;SDS011;60618;40.084;32.908;2023-06-19T07:34:54;3.20;;;1.00;;
72584;SDS011;60618;40.084;32.908;2023-06-19T07:37:21;5.37;;;2.87;;
72584;SDS011;60618;40.084;32.908;2023-06-19T07:39:49;7.82;;;4.47;;
72584;SDS011;60618;40.084;32.908;2023-06-19T07:42:17;7.20;;;4.13;;
72584;SDS011;60618;40.084;32.908;2023-06-19T07:44:45;6.53;;;3.65;;
72584;SDS011;60618;40.084;32.908;2023-06-19T07:47:12;7.38;;;4.68;;
72584;SDS011;60618;40.084;32.908;2023-06-19T07:49:43;4.70;;;2.50;;
72584;SDS011;60618;40.084;32.908;2023-06-19T07:52:10;6.57;;;3.85;;
72584;SDS011;60618;40.084;32.908;2023-06-19T07:57:18;3.08;;;1.20;;
72584;SDS011;60618;40.084;32.908;2023-06-19T07:59:45;3.38;;;1.00;;
72584;SDS011;60618;40.084;32.908;2023-06-19T08:02:12;3.47;;;1.10;;
72584;SDS011;60618;40.084;32.908;2023-06-19T08:04:40;3.00;;;1.10;;
72584;SDS011;60618;40.084;32.908;2023-06-19T08:07:07;4.50;;;2.08;;
72584;SDS011;60618;40.084;32.908;2023-06-19T08:09:34;3.10;;;1.20;;
72584;SDS011;60618;40.084;32.908;2023-06-19T08:12:01;3.53;;;1.45;;
72584;SDS011;60618;40.084;32.908;2023-06-19T08:14:28;3.40;;;1.20;;
72584;SDS011;60618;40.084;32.908;2023-06-19T08:16:55;4.18;;;1.30;;
72584;SDS011;60618;40.084;32.908;2023-06-19T08:19:22;3.50;;;1.50;;
72584;SDS011;60618;40.084;32.908;2023-06-19T08:21:49;3.35;;;1.25;;
72584;SDS011;60618;40.084;32.908;2023-06-19T08:24:16;3.80;;;1.40;;
72584;SDS011;60618;40.084;32.908;2023-06-19T08:26:43;3.90;;;1.60;;
72584;SDS011;60618;40.084;32.908;2023-06-19T08:29:10;4.85;;;1.80;;
72584;SDS011;60618;40.084;32.908;2023-06-19T08:31:37;4.65;;;1.85;;
72584;SDS011;60618;40.084;32.908;2023-06-19T08:34:04;4.35;;;1.85;;
72584;SDS011;60618;40.084;32.908;2023-06-19T08:36:31;4.22;;;1.77;;
72584;SDS011;60618;40.084;32.908;2023-06-19T08:38:57;4.90;;;1.83;;
72584;SDS011;60618;40.084;32.908;2023-06-19T08:41:24;3.72;;;1.40;;
72584;SDS011;60618;40.084;32.908;2023-06-19T08:43:51;3.33;;;1.50;;
72584;SDS011;60618;40.084;32.908;2023-06-19T08:46:18;4.40;;;1.30;;
72584;SDS011;60618;40.084;32.908;2023-06-19T08:48:45;4.07;;;1.50;;
72584;SDS011;60618;40.084;32.908;2023-06-19T08:51:13;3.40;;;1.40;;
72584;SDS011;60618;40.084;32.908;2023-06-19T08:53:49;4.63;;;1.75;;
72584;SDS011;60618;40.084;32.908;2023-06-19T08:56:21;4.03;;;1.30;;
72584;SDS011;60618;40.084;32.908;2023-06-19T08:58:48;13.00;;;7.90;;
72584;SDS011;60618;40.084;32.908;2023-06-19T09:01:18;6.40;;;3.58;;
72584;SDS011;60618;40.084;32.908;2023-06-19T09:03:46;4.23;;;1.60;;
72584;SDS011;60618;40.084;32.908;2023-06-19T09:06:14;3.55;;;1.20;;
72584;SDS011;60618;40.084;32.908;2023-06-19T09:08:42;5.25;;;2.50;;
72584;SDS011;60618;40.084;32.908;2023-06-19T09:11:10;4.22;;;2.13;;
72584;SDS011;60618;40.084;32.908;2023-06-19T09:13:37;5.13;;;2.47;;
72584;SDS011;60618;40.084;32.908;2023-06-19T09:16:05;4.30;;;1.30;;
72584;SDS011;60618;40.084;32.908;2023-06-19T09:18:46;3.50;;;1.20;;
72584;SDS011;60618;40.084;32.908;2023-06-19T09:21:17;3.00;;;1.17;;
72584;SDS011;60618;40.084;32.908;2023-06-19T09:23:45;5.88;;;3.65;;
72584;SDS011;60618;40.084;32.908;2023-06-19T09:26:16;4.47;;;1.42;;
72584;SDS011;60618;40.084;32.908;2023-06-19T09:28:43;3.50;;;1.30;;
72584;SDS011;60618;40.084;32.908;2023-06-19T09:31:11;4.03;;;1.40;;
72584;SDS011;60618;40.084;32.908;2023-06-19T09:33:38;10.43;;;6.55;;
72584;SDS011;60618;40.084;32.908;2023-06-19T09:36:06;8.18;;;4.65;;
72584;SDS011;60618;40.084;32.908;2023-06-19T09:38:36;7.97;;;4.25;;
72584;SDS011;60618;40.084;32.908;2023-06-19T09:41:12;3.80;;;1.30;;
72584;SDS011;60618;40.084;32.908;2023-06-19T09:43:44;3.35;;;1.10;;
72584;SDS011;60618;40.084;32.908;2023-06-19T09:46:13;3.40;;;1.30;;
72584;SDS011;60618;40.084;32.908;2023-06-19T09:48:42;4.40;;;1.75;;
72584;SDS011;60618;40.084;32.908;2023-06-19T09:51:20;4.47;;;2.10;;
72584;SDS011;60618;40.084;32.908;2023-06-19T09:53:49;3.10;;;1.10;;
72584;SDS011;60618;40.084;32.908;2023-06-19T09:56:17;9.07;;;6.15;;
72584;SDS011;60618;40.084;32.908;2023-06-19T09:58:44;4.88;;;1.90;;
72584;SDS011;60618;40.084;32.908;2023-06-19T10:01:12;4.25;;;2.10;;
72584;SDS011;60618;40.084;32.908;2023-06-19T10:03:40;3.10;;;1.10;;
72584;SDS011;60618;40.084;32.908;2023-06-19T10:06:12;2.70;;;0.80;;
72584;SDS011;60618;40.084;32.908;2023-06-19T10:08:41;2.90;;;0.80;;
72584;SDS011;60618;40.084;32.908;2023-06-19T10:11:09;4.38;;;1.00;;
72584;SDS011;60618;40.084;32.908;2023-06-19T10:13:38;3.22;;;1.05;;
72584;SDS011;60618;40.084;32.908;2023-06-19T10:16:07;3.38;;;1.10;;
72584;SDS011;60618;40.084;32.908;2023-06-19T10:18:46;3.60;;;0.90;;
72584;SDS011;60618;40.084;32.908;2023-06-19T10:21:17;3.08;;;1.02;;
72584;SDS011;60618;40.084;32.908;2023-06-19T10:23:57;3.63;;;1.52;;
72584;SDS011;60618;40.084;32.908;2023-06-19T10:26:31;3.05;;;1.20;;
72584;SDS011;60618;40.084;32.908;2023-06-19T10:28:59;3.85;;;1.70;;
72584;SDS011;60618;40.084;32.908;2023-06-19T10:31:26;3.77;;;1.30;;
72584;SDS011;60618;40.084;32.908;2023-06-19T10:33:53;4.32;;;1.67;;
72584;SDS011;60618;40.084;32.908;2023-06-19T10:36:21;3.17;;;1.10;;
72584;SDS011;60618;40.084;32.908;2023-06-19T10:38:49;3.70;;;0.98;;
72584;SDS011;60618;40.084;32.908;2023-06-19T10:41:19;3.28;;;1.10;;
72584;SDS011;60618;40.084;32.908;2023-06-19T10:44:04;3.50;;;1.30;;
72584;SDS011;60618;40.084;32.908;2023-06-19T10:46:32;4.20;;;1.80;;
72584;SDS011;60618;40.084;32.908;2023-06-19T10:49:01;16.50;;;10.73;;
72584;SDS011;60618;40.084;32.908;2023-06-19T10:51:30;3.38;;;1.27;;
72584;SDS011;60618;40.084;32.908;2023-06-19T10:53:58;5.25;;;1.92;;
72584;SDS011;60618;40.084;32.908;2023-06-19T10:56:25;2.87;;;1.00;;
72584;SDS011;60618;40.084;32.908;2023-06-19T10:59:08;4.05;;;1.30;;
72584;SDS011;60618;40.084;32.908;2023-06-19T11:01:37;4.32;;;2.05;;
72584;SDS011;60618;40.084;32.908;2023-06-19T11:04:06;2.95;;;1.08;;
72584;SDS011;60618;40.084;32.908;2023-06-19T11:06:34;5.65;;;3.30;;
72584;SDS011;60618;40.084;32.908;2023-06-19T11:09:02;2.80;;;0.80;;
72584;SDS011;60618;40.084;32.908;2023-06-19T11:11:39;3.40;;;0.80;;
72584;SDS011;60618;40.084;32.908;2023-06-19T11:14:11;3.65;;;1.10;;
72584;SDS011;60618;40.084;32.908;2023-06-19T11:16:40;3.78;;;1.33;;
72584;SDS011;60618;40.084;32.908;2023-06-19T11:19:16;5.53;;;2.55;;
72584;SDS011;60618;40.084;32.908;2023-06-19T11:21:48;3.37;;;1.27;;
72584;SDS011;60618;40.084;32.908;2023-06-19T11:24:17;3.05;;;1.10;;
72584;SDS011;60618;40.084;32.908;2023-06-19T11:26:45;3.33;;;1.55;;
72584;SDS011;60618;40.084;32.908;2023-06-19T11:29:17;3.65;;;1.30;;
72584;SDS011;60618;40.084;32.908;2023-06-19T11:34:34;4.07;;;1.70;;
72584;SDS011;60618;40.084;32.908;2023-06-19T11:39:45;4.43;;;1.30;;
72584;SDS011;60618;40.084;32.908;2023-06-19T11:42:14;16.83;;;13.32;;
72584;SDS011;60618;40.084;32.908;2023-06-19T11:44:54;4.40;;;2.00;;
72584;SDS011;60618;40.084;32.908;2023-06-19T11:47:29;3.47;;;1.57;;
72584;SDS011;60618;40.084;32.908;2023-06-19T11:49:57;6.15;;;2.40;;
72584;SDS011;60618;40.084;32.908;2023-06-19T11:52:24;4.13;;;1.83;;
72584;SDS011;60618;40.084;32.908;2023-06-19T11:54:51;4.35;;;1.63;;
72584;SDS011;60618;40.084;32.908;2023-06-19T11:57:18;3.58;;;1.30;;
72584;SDS011;60618;40.084;32.908;2023-06-19T11:59:45;5.43;;;2.67;;
72584;SDS011;60618;40.084;32.908;2023-06-19T12:02:12;3.55;;;1.65;;
72584;SDS011;60618;40.084;32.908;2023-06-19T12:04:39;4.72;;;2.53;;
72584;SDS011;60618;40.084;32.908;2023-06-19T12:07:06;3.10;;;1.30;;
72584;SDS011;60618;40.084;32.908;2023-06-19T12:09:34;3.70;;;1.50;;
72584;SDS011;60618;40.084;32.908;2023-06-19T12:12:01;4.30;;;1.50;;
72584;SDS011;60618;40.084;32.908;2023-06-19T12:14:27;4.53;;;1.70;;
72584;SDS011;60618;40.084;32.908;2023-06-19T12:16:54;18.85;;;13.73;;
72584;SDS011;60618;40.084;32.908;2023-06-19T12:19:21;11.80;;;8.23;;
72584;SDS011;60618;40.084;32.908;2023-06-19T12:21:48;4.70;;;1.80;;
72584;SDS011;60618;40.084;32.908;2023-06-19T12:24:16;4.27;;;1.60;;
72584;SDS011;60618;40.084;32.908;2023-06-19T12:26:42;5.22;;;1.50;;
72584;SDS011;60618;40.084;32.908;2023-06-19T12:29:09;3.65;;;1.50;;
72584;SDS011;60618;40.084;32.908;2023-06-19T12:31:37;4.03;;;1.60;;
72584;SDS011;60618;40.084;32.908;2023-06-19T12:34:04;3.50;;;1.60;;
72584;SDS011;60618;40.084;32.908;2023-06-19T12:36:46;4.30;;;2.10;;
72584;SDS011;60618;40.084;32.908;2023-06-19T12:39:13;5.13;;;2.58;;
72584;SDS011;60618;40.084;32.908;2023-06-19T12:41:40;6.03;;;2.08;;
72584;SDS011;60618;40.084;32.908;2023-06-19T12:44:07;4.97;;;2.40;;
72584;SDS011;60618;40.084;32.908;2023-06-19T12:46:34;6.85;;;3.55;;
72584;SDS011;60618;40.084;32.908;2023-06-19T12:49:01;4.43;;;1.80;;
72584;SDS011;60618;40.084;32.908;2023-06-19T12:51:28;4.75;;;1.60;;
72584;SDS011;60618;40.084;32.908;2023-06-19T12:53:55;4.32;;;1.70;;
72584;SDS011;60618;40.084;32.908;2023-06-19T12:56:22;4.28;;;1.90;;
72584;SDS011;60618;40.084;32.908;2023-06-19T12:58:49;3.97;;;1.63;;
72584;SDS011;60618;40.084;32.908;2023-06-19T13:01:15;3.60;;;1.60;;
72584;SDS011;60618;40.084;32.908;2023-06-19T13:03:43;3.90;;;1.60;;
72584;SDS011;60618;40.084;32.908;2023-06-19T13:06:10;4.47;;;1.77;;
72584;SDS011;60618;40.084;32.908;2023-06-19T13:08:37;4.05;;;1.83;;
72584;SDS011;60618;40.084;32.908;2023-06-19T13:11:04;4.25;;;1.55;;
72584;SDS011;60618;40.084;32.908;2023-06-19T13:13:30;3.93;;;1.80;;
72584;SDS011;60618;40.084;32.908;2023-06-19T13:15:57;4.05;;;1.65;;
72584;SDS011;60618;40.084;32.908;2023-06-19T13:18:25;4.15;;;1.90;;
72584;SDS011;60618;40.084;32.908;2023-06-19T13:20:52;4.47;;;1.80;;
72584;SDS011;60618;40.084;32.908;2023-06-19T13:23:19;3.75;;;1.67;;
72584;SDS011;60618;40.084;32.908;2023-06-19T13:25:46;3.60;;;1.90;;
72584;SDS011;60618;40.084;32.908;2023-06-19T13:28:13;3.72;;;1.70;;
72584;SDS011;60618;40.084;32.908;2023-06-19T13:30:40;11.52;;;5.97;;
72584;SDS011;60618;40.084;32.908;2023-06-19T13:33:06;4.93;;;1.80;;
72584;SDS011;60618;40.084;32.908;2023-06-19T13:35:34;5.85;;;1.80;;
72584;SDS011;60618;40.084;32.908;2023-06-19T13:38:01;3.30;;;1.30;;
72584;SDS011;60618;40.084;32.908;2023-06-19T13:40:27;3.63;;;1.63;;
72584;SDS011;60618;40.084;32.908;2023-06-19T13:42:55;4.60;;;2.42;;
72584;SDS011;60618;40.084;32.908;2023-06-19T13:45:23;3.78;;;1.52;;
72584;SDS011;60618;40.084;32.908;2023-06-19T13:47:50;3.60;;;1.52;;
72584;SDS011;60618;40.084;32.908;2023-06-19T13:50:17;3.30;;;1.37;;
72584;SDS011;60618;40.084;32.908;2023-06-19T13:52:45;4.18;;;1.60;;
72584;SDS011;60618;40.084;32.908;2023-06-19T13:55:12;4.43;;;1.77;;
72584;SDS011;60618;40.084;32.908;2023-06-19T13:57:40;5.03;;;1.50;;
72584;SDS011;60618;40.084;32.908;2023-06-19T14:00:08;4.25;;;1.75;;
72584;SDS011;60618;40.084;32.908;2023-06-19T14:02:37;4.40;;;1.90;;
72584;SDS011;60618;40.084;32.908;2023-06-19T14:05:05;4.05;;;1.80;;
72584;SDS011;60618;40.084;32.908;2023-06-19T14:07:34;5.07;;;1.80;;
72584;SDS011;60618;40.084;32.908;2023-06-19T14:10:02;4.13;;;1.60;;
72584;SDS011;60618;40.084;32.908;2023-06-19T14:12:30;3.70;;;1.80;;
72584;SDS011;60618;40.084;32.908;2023-06-19T14:14:57;3.10;;;1.27;;
72584;SDS011;60618;40.084;32.908;2023-06-19T14:17:24;3.60;;;1.50;;
72584;SDS011;60618;40.084;32.908;2023-06-19T14:19:51;4.43;;;1.50;;
72584;SDS011;60618;40.084;32.908;2023-06-19T14:22:18;4.90;;;1.60;;
72584;SDS011;60618;40.084;32.908;2023-06-19T14:24:45;4.57;;;1.50;;
72584;SDS011;60618;40.084;32.908;2023-06-19T14:27:12;5.63;;;2.40;;
72584;SDS011;60618;40.084;32.908;2023-06-19T14:29:39;3.55;;;1.70;;
72584;SDS011;60618;40.084;32.908;2023-06-19T14:32:06;3.95;;;1.55;;
72584;SDS011;60618;40.084;32.908;2023-06-19T14:34:33;3.92;;;1.80;;
72584;SDS011;60618;40.084;32.908;2023-06-19T14:37:00;5.00;;;2.83;;
72584;SDS011;60618;40.084;32.908;2023-06-19T14:39:30;3.60;;;1.50;;
72584;SDS011;60618;40.084;32.908;2023-06-19T14:41:57;7.47;;;4.25;;
72584;SDS011;60618;40.084;32.908;2023-06-19T14:44:24;5.20;;;2.55;;
72584;SDS011;60618;40.084;32.908;2023-06-19T14:46:51;4.32;;;1.90;;
72584;SDS011;60618;40.084;32.908;2023-06-19T14:49:18;5.30;;;2.20;;